Fairchild Air Force Base
KSKA : now visible

Airfield :











YOU CAN JOIN US ON...

 
LOGIN :

Register | Disclaimer

   EN    FR    IT 

 









Legend :    VFR   Marginal VFR   IFR   Intensive IFR   Very Intensive IFR
Visi :
Ceiling :
>= 8 km
>= 3000ft
5 to 8 km
1000 to 3000 ft
1500m to 5 km
500 to 1000 ft
800 to 1500m
200 to 500 ft
< 800m
< 200 ft
Symbols :   Thunderstorms  Fog  Heavy snow  Heavy precipitations  Wind > 20 kt







- Airport Elevation : 2461 ft


KSKA - Fairchild Air Force Base

CURRENT METAR :
  • 230858Z AUTO 14004KT 10SM CLR 13/06 A2998 RMK AO2 SLP147 T01330059 53000 $

EXPIRED METARs :
  • 230758Z AUTO 00000KT 10SM CLR 15/06 A2998 RMK AO2 SLP146 T01490062 402520143 $
  • 230658Z AUTO 24006KT 10SM CLR 16/07 A2998 RMK AO2 SLP147 T01560066 $

TAF TAF KSKA
Valid from the 23 at 03:00 until the 24 at 09:00 UTC


230300Z 2303/2409 15006KT 9999 FEW200 QNH2987INS
BECMG 2402/2403 22006KT 9999 BKN080 QNH2986INS TX27/2322Z TN10/2311Z
No reported NOTAMs for that airfield.



MET'MAP, your aeronautical weather chart ! - Copyright ORBIFLY December 2007 - Disclaimer

ORBIFLY MET'MAP TEAM :

Programming & Development : Alexandra Zaïnal
Concept & Development : Baudouin d'Aumeries
Co-Development & Prog : Marc-Olivier Méhu
Technical & hardware support : Manuel Goepfert

Contact : metmap@orbifly.com




SOURCES & CREDITS :

   NOAA       Earth
Advisory